createdAt,value
2023-01-24T00:01:31.000Z,102909.72
2023-01-24T00:03:59.061Z,102907.69
2023-01-24T00:06:27.094Z,102901.16
2023-01-24T00:08:55.237Z,102913.41
2023-01-24T00:11:23.252Z,102894.34
2023-01-24T00:13:52.629Z,102897.69
2023-01-24T00:16:22.912Z,102896.94
2023-01-24T00:18:51.647Z,102906.00
2023-01-24T00:21:22.267Z,102911.41
2023-01-24T00:23:52.268Z,102905.13
2023-01-24T00:26:22.096Z,102874.72
2023-01-24T00:28:50.410Z,102896.25
2023-01-24T00:31:19.897Z,102889.13
2023-01-24T00:33:48.246Z,102889.00
2023-01-24T00:36:16.333Z,102880.91
2023-01-24T00:38:44.639Z,102873.81
2023-01-24T00:41:12.901Z,102864.94
2023-01-24T00:43:40.885Z,102880.25
2023-01-24T00:46:10.110Z,102881.19
2023-01-24T00:48:39.526Z,102873.97
2023-01-24T00:51:07.767Z,102882.94
2023-01-24T00:53:36.166Z,102896.44
2023-01-24T00:56:04.552Z,102900.97
2023-01-24T00:58:33.965Z,102874.84
2023-01-24T01:01:04.452Z,102876.75
2023-01-24T01:03:33.233Z,102869.47
2023-01-24T01:06:04.811Z,102850.47
2023-01-24T01:08:33.433Z,102828.09
2023-01-24T01:11:01.514Z,102831.69
2023-01-24T01:13:31.025Z,102848.75
2023-01-24T01:16:03.822Z,102855.84
2023-01-24T01:18:31.949Z,102862.31
2023-01-24T01:20:59.996Z,102870.41
2023-01-24T01:23:30.290Z,102851.53
2023-01-24T01:26:01.602Z,102845.16
2023-01-24T01:28:30.599Z,102841.66
2023-01-24T01:30:59.124Z,102831.84
2023-01-24T01:33:27.185Z,102835.31
2023-01-24T01:35:55.204Z,102834.56
2023-01-24T01:38:25.566Z,102801.19
2023-01-24T01:40:55.423Z,102794.09
2023-01-24T01:43:25.292Z,102804.00
2023-01-24T01:45:55.630Z,102801.41
2023-01-24T01:48:31.568Z,102805.06
2023-01-24T01:51:04.619Z,102815.16
2023-01-24T01:53:37.682Z,102831.16
2023-01-24T01:56:13.018Z,102811.41
2023-01-24T01:58:43.241Z,102836.19
2023-01-24T02:01:11.448Z,102815.50
2023-01-24T02:03:44.902Z,102813.38
2023-01-24T02:06:29.172Z,102788.97
2023-01-24T02:08:57.354Z,102802.56
2023-01-24T02:11:40.173Z,102806.81
2023-01-24T02:14:28.920Z,102806.81
2023-01-24T02:16:57.078Z,102813.25
2023-01-24T02:19:56.793Z,102797.81
2023-01-24T02:22:30.412Z,102802.16
2023-01-24T02:25:06.233Z,102802.09
2023-01-24T02:27:36.604Z,102807.38
2023-01-24T02:30:05.439Z,102789.44
2023-01-24T02:32:33.430Z,102795.63
2023-01-24T02:35:01.479Z,102791.97
2023-01-24T02:37:30.066Z,102800.75
2023-01-24T02:40:02.113Z,102804.31
2023-01-24T02:42:35.527Z,102794.56
2023-01-24T02:45:11.318Z,102798.91
2023-01-24T02:47:45.073Z,102797.16
2023-01-24T02:50:13.806Z,102803.53
2023-01-24T02:52:59.503Z,102827.72
2023-01-24T02:55:28.022Z,102819.63
2023-01-24T02:58:07.747Z,102804.31
2023-01-24T03:00:43.664Z,102785.97
2023-01-24T03:03:16.467Z,102793.50
2023-01-24T03:05:57.321Z,102793.50
2023-01-24T03:08:32.550Z,102796.22
2023-01-24T03:11:01.619Z,102776.38
2023-01-24T03:13:49.275Z,102780.88
2023-01-24T03:16:36.992Z,102784.53
2023-01-24T03:19:23.316Z,102781.06
2023-01-24T03:22:08.639Z,102791.00
2023-01-24T03:24:54.550Z,102798.22
2023-01-24T03:27:39.825Z,102799.09
2023-01-24T03:30:27.506Z,102780.19
2023-01-24T03:33:20.094Z,102754.97
2023-01-24T03:35:55.423Z,102727.97
2023-01-24T03:38:44.504Z,102735.88
2023-01-24T03:41:12.934Z,102745.69
2023-01-24T03:43:44.264Z,102741.91
2023-01-24T03:46:13.463Z,102745.53
2023-01-24T03:48:53.825Z,102750.81
2023-01-24T03:51:46.531Z,102752.56
2023-01-24T03:54:14.758Z,102742.53
2023-01-24T03:57:14.704Z,102746.22
2023-01-24T03:59:43.043Z,102754.19
2023-01-24T04:02:11.119Z,102748.78
2023-01-24T04:05:00.492Z,102746.88
2023-01-24T04:07:28.592Z,102763.94
2023-01-24T04:10:00.740Z,102767.50
2023-01-24T04:12:31.622Z,102783.72
2023-01-24T04:15:00.966Z,102765.75
2023-01-24T04:17:29.992Z,102772.03
2023-01-24T04:20:00.176Z,102787.28
2023-01-24T04:22:28.508Z,102774.84
2023-01-24T04:24:59.372Z,102782.06
2023-01-24T04:27:32.090Z,102768.47
2023-01-24T04:30:08.374Z,102780.25
2023-01-24T04:32:38.552Z,102779.25
2023-01-24T04:35:21.226Z,102783.81
2023-01-24T04:37:55.119Z,102777.63
2023-01-24T04:40:43.329Z,102767.69
2023-01-24T04:43:11.573Z,102768.56
2023-01-24T04:45:41.017Z,102767.69
2023-01-24T04:48:11.652Z,102751.50
2023-01-24T04:50:41.088Z,102754.19
2023-01-24T04:53:09.072Z,102750.63
2023-01-24T04:55:37.245Z,102762.28
2023-01-24T04:58:05.225Z,102754.13
2023-01-24T05:00:33.137Z,102744.28
2023-01-24T05:03:01.310Z,102743.22
2023-01-24T05:05:30.141Z,102734.22
2023-01-24T05:07:59.905Z,102744.94
2023-01-24T05:10:28.004Z,102754.88
2023-01-24T05:12:55.960Z,102746.78
2023-01-24T05:15:27.113Z,102749.47
2023-01-24T05:17:56.323Z,102743.22
2023-01-24T05:20:26.891Z,102743.22
2023-01-24T05:22:59.089Z,102739.63
2023-01-24T05:25:29.141Z,102735.22
2023-01-24T05:27:57.032Z,102736.16
2023-01-24T05:30:25.744Z,102742.44
2023-01-24T05:32:58.188Z,102737.91
2023-01-24T05:35:26.789Z,102736.16
2023-01-24T05:37:55.340Z,102728.94
2023-01-24T05:40:26.450Z,102728.06
2023-01-24T05:42:54.517Z,102719.22
2023-01-24T05:45:23.052Z,102721.03
2023-01-24T05:47:51.398Z,102705.91
2023-01-24T05:50:20.715Z,102708.59
2023-01-24T05:53:08.783Z,102706.78
2023-01-24T05:55:38.273Z,102704.84
2023-01-24T05:58:06.281Z,102707.72
2023-01-24T06:00:54.462Z,102700.56
2023-01-24T06:03:31.987Z,102702.22
2023-01-24T06:06:00.203Z,102698.69
2023-01-24T06:08:30.823Z,102704.84
2023-01-24T06:11:05.862Z,102684.34
2023-01-24T06:13:35.237Z,102695.00
2023-01-24T06:16:07.114Z,102699.44
2023-01-24T06:18:35.946Z,102695.00
2023-01-24T06:21:08.708Z,102703.09
2023-01-24T06:23:37.184Z,102690.47
2023-01-24T06:26:10.937Z,102693.16
2023-01-24T06:28:39.747Z,102694.03
2023-01-24T06:31:20.990Z,102689.41
2023-01-24T06:34:05.667Z,102684.00
2023-01-24T06:36:53.347Z,102700.19
2023-01-24T06:39:22.485Z,102693.06
2023-01-24T06:41:52.585Z,102692.09
2023-01-24T06:44:21.149Z,102691.34
2023-01-24T06:46:49.064Z,102686.28
2023-01-24T06:49:17.061Z,102689.97
2023-01-24T06:51:50.498Z,102686.28
2023-01-24T06:54:18.448Z,102674.72
2023-01-24T06:56:46.411Z,102678.13
2023-01-24T06:59:15.724Z,102684.34
2023-01-24T07:01:43.782Z,102687.00
2023-01-24T07:04:11.811Z,102685.34
2023-01-24T07:06:39.846Z,102686.13
2023-01-24T07:09:07.961Z,102693.31
2023-01-24T07:11:36.250Z,102695.88
2023-01-24T07:14:04.350Z,102701.06
2023-01-24T07:16:33.716Z,102701.25
2023-01-24T07:19:02.257Z,102703.84
2023-01-24T07:21:30.893Z,102703.59
2023-01-24T07:24:00.269Z,102697.88
2023-01-24T07:26:29.296Z,102692.28
2023-01-24T07:28:57.236Z,102701.13
2023-01-24T07:31:25.677Z,102701.69
2023-01-24T07:33:55.024Z,102709.41
2023-01-24T07:36:23.062Z,102709.97
2023-01-24T07:38:54.538Z,102711.59
2023-01-24T07:41:22.625Z,102708.44
2023-01-24T07:43:54.503Z,102699.00
2023-01-24T07:46:22.869Z,102691.22
2023-01-24T07:48:50.829Z,102699.19
2023-01-24T07:51:20.451Z,102691.78
2023-01-24T07:53:49.209Z,102691.47
2023-01-24T07:56:25.357Z,102694.16
2023-01-24T07:58:53.499Z,102693.22
2023-01-24T08:01:22.700Z,102692.53
2023-01-24T08:03:51.532Z,102686.88
2023-01-24T08:06:20.936Z,102676.56
2023-01-24T08:08:48.916Z,102669.81
2023-01-24T08:11:18.591Z,102673.66
2023-01-24T08:13:47.079Z,102685.66
2023-01-24T08:16:15.635Z,102694.00
2023-01-24T08:18:44.742Z,102669.38
2023-01-24T08:21:14.483Z,102687.84
2023-01-24T08:23:44.091Z,102688.16
2023-01-24T08:26:12.046Z,102698.06
2023-01-24T08:28:39.957Z,102699.63
2023-01-24T08:31:08.092Z,102697.81
2023-01-24T08:33:38.907Z,102698.75
2023-01-24T08:36:07.822Z,102690.78
2023-01-24T08:38:36.002Z,102712.72
2023-01-24T08:41:09.102Z,102715.72
2023-01-24T08:43:37.420Z,102709.94
2023-01-24T08:46:05.658Z,102720.34
2023-01-24T08:48:33.812Z,102728.78
2023-01-24T08:51:05.045Z,102731.78
2023-01-24T08:53:34.598Z,102735.69
2023-01-24T08:56:03.609Z,102734.03
2023-01-24T08:58:34.332Z,102723.25
2023-01-24T09:01:02.409Z,102725.19
2023-01-24T09:03:30.365Z,102715.44
2023-01-24T09:05:59.292Z,102711.88
2023-01-24T09:08:27.370Z,102711.78
2023-01-24T09:10:55.561Z,102719.94
2023-01-24T09:13:23.497Z,102723.31
2023-01-24T09:15:53.745Z,102720.72
2023-01-24T09:18:21.817Z,102723.91
2023-01-24T09:20:49.868Z,102730.09
2023-01-24T09:23:17.867Z,102736.25
2023-01-24T09:25:52.330Z,102727.09
2023-01-24T09:28:21.344Z,102728.81
2023-01-24T09:30:50.094Z,102731.91
2023-01-24T09:33:21.071Z,102733.28
2023-01-24T09:35:58.074Z,102737.63
2023-01-24T09:38:27.307Z,102737.03
2023-01-24T09:41:07.355Z,102741.94
2023-01-24T09:43:47.303Z,102743.38
2023-01-24T09:46:35.634Z,102739.63
2023-01-24T09:49:15.653Z,102724.84
2023-01-24T09:51:47.586Z,102741.41
2023-01-24T09:54:23.885Z,102729.16
2023-01-24T09:56:53.474Z,102740.13
2023-01-24T09:59:24.573Z,102725.66
2023-01-24T10:01:53.965Z,102717.75
2023-01-24T10:04:27.661Z,102723.25
2023-01-24T10:07:33.777Z,102721.25
2023-01-24T10:10:16.752Z,102719.38
2023-01-24T10:12:53.647Z,102726.53
2023-01-24T10:15:36.279Z,102715.50
2023-01-24T10:18:34.617Z,102711.22
2023-01-24T10:21:17.089Z,102708.19
2023-01-24T10:23:50.653Z,102701.06
2023-01-24T10:26:21.587Z,102681.56
2023-01-24T10:28:52.211Z,102717.84
2023-01-24T10:31:25.339Z,102710.53
2023-01-24T10:33:58.832Z,102711.28
2023-01-24T10:36:38.918Z,102706.00
2023-01-24T10:39:07.050Z,102710.81
2023-01-24T10:41:35.194Z,102718.22
2023-01-24T10:44:10.986Z,102716.97
2023-01-24T10:47:02.767Z,102708.22
2023-01-24T10:49:34.943Z,102704.13
2023-01-24T10:52:15.821Z,102693.34
2023-01-24T10:54:49.981Z,102679.97
2023-01-24T10:57:29.140Z,102682.97
2023-01-24T10:59:57.644Z,102678.91
2023-01-24T11:02:27.331Z,102682.56
2023-01-24T11:05:01.438Z,102687.38
2023-01-24T11:07:33.712Z,102671.75
2023-01-24T11:10:03.166Z,102671.19
2023-01-24T11:12:31.156Z,102678.03
2023-01-24T11:14:59.270Z,102666.59
2023-01-24T11:17:37.193Z,102679.41
2023-01-24T11:20:24.393Z,102675.16
2023-01-24T11:22:53.839Z,102677.94
2023-01-24T11:25:22.180Z,102672.47
2023-01-24T11:27:51.600Z,102669.38
2023-01-24T11:30:21.863Z,102670.72
2023-01-24T11:33:00.875Z,102668.50
2023-01-24T11:35:32.341Z,102658.56
2023-01-24T11:38:20.101Z,102668.31
2023-01-24T11:40:55.952Z,102672.25
2023-01-24T11:43:57.306Z,102678.03
2023-01-24T11:46:44.010Z,102664.63
2023-01-24T11:49:48.570Z,102668.38
2023-01-24T11:53:01.577Z,102644.47
2023-01-24T11:55:41.052Z,102648.41
2023-01-24T11:58:31.760Z,102656.13
2023-01-24T12:01:11.018Z,102650.44
2023-01-24T12:03:56.172Z,102644.75
2023-01-24T12:06:39.063Z,102641.06
2023-01-24T12:09:20.650Z,102639.34
2023-01-24T12:12:05.433Z,102611.06
2023-01-24T12:14:51.729Z,102599.41
2023-01-24T12:17:39.779Z,102585.53
2023-01-24T12:20:33.101Z,102593.94
2023-01-24T12:23:10.070Z,102593.28
2023-01-24T12:25:41.730Z,102564.88
2023-01-24T12:28:17.182Z,102570.91
2023-01-24T12:30:49.834Z,102599.34
2023-01-24T12:33:27.235Z,102593.75
2023-01-24T12:36:00.976Z,102586.81
2023-01-24T12:38:36.012Z,102575.69
2023-01-24T12:41:13.304Z,102575.19
2023-01-24T12:43:53.736Z,102584.97
2023-01-24T12:46:28.358Z,102575.69
2023-01-24T12:49:14.284Z,102572.88
2023-01-24T12:51:49.087Z,102582.63
2023-01-24T12:54:21.547Z,102533.59
2023-01-24T12:56:59.325Z,102570.00
2023-01-24T12:59:30.700Z,102581.34
2023-01-24T13:02:43.372Z,102577.56
2023-01-24T13:05:29.913Z,102574.88
2023-01-24T13:08:12.482Z,102574.75
2023-01-24T13:10:59.248Z,102577.66
2023-01-24T13:13:31.889Z,102577.66
2023-01-24T13:16:28.133Z,102575.84
2023-01-24T13:19:05.947Z,102575.16
2023-01-24T13:21:43.931Z,102575.28
2023-01-24T13:24:40.715Z,102574.41
2023-01-24T13:27:20.858Z,102575.16
2023-01-24T13:30:00.633Z,102573.25
2023-01-24T13:32:30.432Z,102572.06
2023-01-24T13:35:01.036Z,102578.13
2023-01-24T13:37:33.536Z,102590.75
2023-01-24T13:40:04.072Z,102596.09
2023-01-24T13:42:36.694Z,102598.69
2023-01-24T13:45:42.472Z,102597.03
2023-01-24T13:48:46.858Z,102603.59
2023-01-24T13:51:33.596Z,102605.16
2023-01-24T13:54:02.927Z,102614.91
2023-01-24T13:56:31.680Z,102623.97
2023-01-24T13:59:01.632Z,102624.16
2023-01-24T14:01:29.759Z,102630.75
2023-01-24T14:04:01.888Z,102629.88
2023-01-24T14:06:42.390Z,102626.09
2023-01-24T14:09:22.233Z,102631.13
2023-01-24T14:11:59.284Z,102622.03
2023-01-24T14:14:36.349Z,102614.22
2023-01-24T14:17:29.693Z,102606.22
2023-01-24T14:20:00.304Z,102576.38
2023-01-24T14:22:39.506Z,102597.03
2023-01-24T14:25:35.119Z,102593.56
2023-01-24T14:28:04.615Z,102591.38
2023-01-24T14:30:38.801Z,102589.66
2023-01-24T14:33:21.982Z,102592.47
2023-01-24T14:35:58.921Z,102586.97
2023-01-24T14:38:26.869Z,102595.16
2023-01-24T14:40:57.254Z,102600.47
2023-01-24T14:43:35.247Z,102607.72
2023-01-24T14:46:12.451Z,102604.06
2023-01-24T14:48:40.907Z,102605.97
2023-01-24T14:51:18.480Z,102602.50
2023-01-24T14:53:51.651Z,102586.94
2023-01-24T14:56:20.420Z,102595.34
2023-01-24T14:58:48.545Z,102579.56
2023-01-24T15:01:29.741Z,102564.13
2023-01-24T15:03:58.288Z,102569.84
2023-01-24T15:06:29.530Z,102566.06
2023-01-24T15:08:59.723Z,102569.59
2023-01-24T15:11:31.219Z,102558.72
2023-01-24T15:14:02.026Z,102549.41
2023-01-24T15:16:36.954Z,102565.41
2023-01-24T15:19:08.018Z,102565.97
2023-01-24T15:21:40.956Z,102565.00
2023-01-24T15:24:20.977Z,102568.38
2023-01-24T15:26:48.984Z,102559.50
2023-01-24T15:29:50.933Z,102556.69
2023-01-24T15:32:40.532Z,102553.00
2023-01-24T15:35:28.667Z,102553.78
2023-01-24T15:38:24.687Z,102559.06
2023-01-24T15:40:55.865Z,102564.47
2023-01-24T15:43:46.768Z,102548.81
2023-01-24T15:46:45.816Z,102570.00
2023-01-24T15:49:33.081Z,102572.91
2023-01-24T15:52:15.336Z,102551.50
2023-01-24T15:54:46.586Z,102561.22
2023-01-24T15:57:20.777Z,102571.91
2023-01-24T15:59:52.122Z,102564.69
2023-01-24T16:02:20.207Z,102566.50
2023-01-24T16:04:48.922Z,102566.50
2023-01-24T16:07:19.114Z,102563.81
2023-01-24T16:09:49.747Z,102563.72
2023-01-24T16:12:20.585Z,102559.19
2023-01-24T16:15:02.254Z,102557.34
2023-01-24T16:17:34.417Z,102547.81
2023-01-24T16:20:02.888Z,102537.13
2023-01-24T16:22:31.463Z,102531.84
2023-01-24T16:25:00.735Z,102539.16
2023-01-24T16:27:33.295Z,102532.03
2023-01-24T16:30:01.480Z,102495.50
2023-01-24T16:32:30.103Z,102489.56
2023-01-24T16:34:58.001Z,102509.22
2023-01-24T16:37:25.982Z,102496.03
2023-01-24T16:39:54.539Z,102489.03
2023-01-24T16:42:23.998Z,102478.84
2023-01-24T16:44:56.676Z,102490.31
2023-01-24T16:47:25.045Z,102491.59
2023-01-24T16:49:54.985Z,102466.72
2023-01-24T16:52:23.706Z,102483.28
2023-01-24T16:54:52.280Z,102464.06
2023-01-24T16:57:20.538Z,102447.63
2023-01-24T16:59:50.291Z,102473.38
2023-01-24T17:02:18.719Z,102462.91
2023-01-24T17:04:49.259Z,102460.94
2023-01-24T17:07:17.500Z,102469.78
2023-01-24T17:09:45.369Z,102468.41
2023-01-24T17:12:14.989Z,102490.47
2023-01-24T17:14:43.869Z,102498.03
2023-01-24T17:17:13.396Z,102476.94
2023-01-24T17:19:41.327Z,102461.50
2023-01-24T17:22:09.475Z,102459.66
2023-01-24T17:24:37.439Z,102456.84
2023-01-24T17:27:05.639Z,102459.44
2023-01-24T17:29:33.517Z,102450.03
2023-01-24T17:32:01.697Z,102450.66
2023-01-24T17:34:31.160Z,102457.69
2023-01-24T17:36:59.164Z,102478.13
2023-01-24T17:39:27.253Z,102468.91
2023-01-24T17:41:55.419Z,102461.53
2023-01-24T17:44:23.720Z,102467.59
2023-01-24T17:46:51.752Z,102469.97
2023-01-24T17:49:19.767Z,102462.72
2023-01-24T17:51:50.225Z,102468.78
2023-01-24T17:54:18.764Z,102463.50
2023-01-24T17:56:46.818Z,102474.31
2023-01-24T17:59:14.780Z,102482.56
2023-01-24T18:01:42.729Z,102472.91
2023-01-24T18:04:10.801Z,102464.28
2023-01-24T18:06:38.846Z,102448.97
2023-01-24T18:09:08.174Z,102462.03
2023-01-24T18:11:37.304Z,102459.78
2023-01-24T18:14:05.979Z,102452.63
2023-01-24T18:16:34.019Z,102449.31
2023-01-24T18:19:02.075Z,102447.91
2023-01-24T18:21:30.123Z,102439.25
2023-01-24T18:24:00.224Z,102453.81
2023-01-24T18:26:31.535Z,102448.63
2023-01-24T18:29:00.924Z,102453.38
2023-01-24T18:31:29.298Z,102427.44
2023-01-24T18:33:59.646Z,102452.50
2023-01-24T18:36:29.524Z,102455.31
2023-01-24T18:38:58.198Z,102429.47
2023-01-24T18:41:27.637Z,102461.81
2023-01-24T18:43:58.741Z,102448.44
2023-01-24T18:46:26.803Z,102446.69
2023-01-24T18:48:54.789Z,102448.72
2023-01-24T18:51:23.011Z,102454.91
2023-01-24T18:53:54.435Z,102452.22
2023-01-24T18:56:22.739Z,102438.56
2023-01-24T18:58:50.961Z,102450.47
2023-01-24T19:01:22.301Z,102453.16
2023-01-24T19:03:51.186Z,102447.97
2023-01-24T19:06:26.371Z,102446.13
2023-01-24T19:09:04.192Z,102446.34
2023-01-24T19:11:34.215Z,102432.97
2023-01-24T19:14:03.925Z,102425.94
2023-01-24T19:16:36.995Z,102431.09
2023-01-24T19:19:06.033Z,102424.00
2023-01-24T19:21:34.863Z,102415.97
2023-01-24T19:24:04.366Z,102415.13
2023-01-24T19:26:32.674Z,102409.75
2023-01-24T19:29:01.523Z,102415.13
2023-01-24T19:31:30.599Z,102416.22
2023-01-24T19:34:00.298Z,102399.34
2023-01-24T19:36:28.764Z,102380.25
2023-01-24T19:38:58.264Z,102386.19
2023-01-24T19:41:28.783Z,102399.78
2023-01-24T19:44:19.640Z,102404.56
2023-01-24T19:46:47.273Z,102400.13
2023-01-24T19:49:16.701Z,102390.28
2023-01-24T19:51:44.823Z,102394.91
2023-01-24T19:54:12.957Z,102388.78
2023-01-24T19:56:41.355Z,102383.25
2023-01-24T19:59:09.522Z,102375.34
2023-01-24T20:01:37.575Z,102373.84
2023-01-24T20:04:22.619Z,102372.91
2023-01-24T20:06:54.105Z,102373.00
2023-01-24T20:09:22.806Z,102375.81
2023-01-24T20:11:53.021Z,102389.31
2023-01-24T20:14:21.340Z,102376.00
2023-01-24T20:16:49.355Z,102376.13
2023-01-24T20:19:28.211Z,102376.44
2023-01-24T20:21:59.792Z,102355.88
2023-01-24T20:24:28.483Z,102372.63
2023-01-24T20:26:56.689Z,102370.91
2023-01-24T20:29:25.152Z,102367.63
2023-01-24T20:31:54.526Z,102363.78
2023-01-24T20:34:23.648Z,102355.66
2023-01-24T20:36:52.705Z,102346.69
2023-01-24T20:39:22.623Z,102348.75
2023-01-24T20:41:50.990Z,102331.03
2023-01-24T20:44:26.451Z,102311.94
2023-01-24T20:46:55.018Z,102334.50
2023-01-24T20:49:23.165Z,102335.38
2023-01-24T20:51:51.147Z,102321.00
2023-01-24T20:54:19.232Z,102317.44
2023-01-24T20:56:49.667Z,102320.03
2023-01-24T20:59:17.963Z,102313.78
2023-01-24T21:01:45.995Z,102312.03
2023-01-24T21:04:13.994Z,102303.19
2023-01-24T21:06:44.062Z,102301.78
2023-01-24T21:09:12.445Z,102292.19
2023-01-24T21:11:40.443Z,102281.47
2023-01-24T21:14:14.047Z,102278.78
2023-01-24T21:16:42.077Z,102272.53
2023-01-24T21:19:14.717Z,102279.44
2023-01-24T21:21:42.673Z,102273.63
2023-01-24T21:24:31.876Z,102270.81
2023-01-24T21:27:00.888Z,102268.00
2023-01-24T21:29:30.647Z,102262.59
2023-01-24T21:31:58.730Z,102256.34
2023-01-24T21:34:27.187Z,102250.09
2023-01-24T21:36:55.359Z,102251.91
2023-01-24T21:39:25.138Z,102250.97
2023-01-24T21:41:56.534Z,102245.56
2023-01-24T21:44:25.637Z,102237.22
2023-01-24T21:46:55.279Z,102242.22
2023-01-24T21:49:23.574Z,102226.44
2023-01-24T21:51:53.805Z,102239.31
2023-01-24T21:54:23.005Z,102232.16
2023-01-24T21:57:23.979Z,102226.69
2023-01-24T21:59:57.211Z,102217.72
2023-01-24T22:02:28.196Z,102212.09
2023-01-24T22:04:56.311Z,102206.94
2023-01-24T22:07:25.835Z,102202.28
2023-01-24T22:09:55.410Z,102193.97
2023-01-24T22:12:23.621Z,102188.56
2023-01-24T22:14:52.675Z,102189.66
2023-01-24T22:17:22.978Z,102196.75
2023-01-24T22:19:55.347Z,102187.50
2023-01-24T22:22:52.299Z,102201.31
2023-01-24T22:25:31.807Z,102200.53
2023-01-24T22:28:00.457Z,102197.84
2023-01-24T22:30:29.983Z,102176.06
2023-01-24T22:32:58.511Z,102180.91
2023-01-24T22:35:29.280Z,102171.94
2023-01-24T22:37:58.748Z,102172.81
2023-01-24T22:40:28.148Z,102161.16
2023-01-24T22:42:57.883Z,102182.53
2023-01-24T22:45:26.242Z,102171.50
2023-01-24T22:47:54.691Z,102156.97
2023-01-24T22:50:22.984Z,102174.88
2023-01-24T22:52:52.928Z,102168.72
2023-01-24T22:55:21.160Z,102161.59
2023-01-24T22:57:49.228Z,102151.66
2023-01-24T23:00:19.056Z,102138.91
2023-01-24T23:02:46.994Z,102124.56
2023-01-24T23:05:15.254Z,102117.56
2023-01-24T23:07:43.322Z,102125.78
2023-01-24T23:10:13.077Z,102106.66
2023-01-24T23:12:58.435Z,102104.72
2023-01-24T23:15:43.811Z,102103.72
2023-01-24T23:18:16.019Z,102101.66
2023-01-24T23:21:01.192Z,102097.22
2023-01-24T23:23:29.106Z,102103.97
2023-01-24T23:25:58.918Z,102092.09
2023-01-24T23:28:30.400Z,102091.84
2023-01-24T23:31:05.829Z,102066.09
2023-01-24T23:33:37.782Z,102082.25
2023-01-24T23:36:06.223Z,102083.13
2023-01-24T23:38:34.205Z,102076.13
2023-01-24T23:41:07.207Z,102072.34
2023-01-24T23:43:35.362Z,102064.56
2023-01-24T23:46:03.705Z,102072.78
2023-01-24T23:48:31.805Z,102075.69
2023-01-24T23:51:01.218Z,102075.59
2023-01-24T23:53:29.500Z,102069.41
2023-01-24T23:55:58.073Z,102066.50
2023-01-24T23:58:27.587Z,102056.44
